createdAt,value
2023-02-13T00:00:35.000Z,68.66
2023-02-13T00:03:01.806Z,68.39
2023-02-13T00:05:28.317Z,68.56
2023-02-13T00:07:54.795Z,68.25
2023-02-13T00:10:21.375Z,68.36
2023-02-13T00:12:47.842Z,68.42
2023-02-13T00:15:14.411Z,68.29
2023-02-13T00:17:40.915Z,68.38
2023-02-13T00:20:10.095Z,67.95
2023-02-13T00:22:38.140Z,67.97
2023-02-13T00:25:07.124Z,68.43
2023-02-13T00:27:33.897Z,68.53
2023-02-13T00:30:00.643Z,68.46
2023-02-13T00:32:27.193Z,68.31
2023-02-13T00:34:53.742Z,67.88
2023-02-13T00:37:22.228Z,68.51
2023-02-13T00:39:48.685Z,68.47
2023-02-13T00:42:15.117Z,68.89
2023-02-13T00:44:41.576Z,69.41
2023-02-13T00:47:08.093Z,69.04
2023-02-13T00:49:34.545Z,69.33
2023-02-13T00:52:01.026Z,69.44
2023-02-13T00:54:27.562Z,69.19
2023-02-13T00:56:54.076Z,68.71
2023-02-13T00:59:20.535Z,69.01
2023-02-13T01:01:47.030Z,68.75
2023-02-13T01:04:13.565Z,69.35
2023-02-13T01:06:40.226Z,69.37
2023-02-13T01:09:06.885Z,69.63
2023-02-13T01:11:33.390Z,69.54
2023-02-13T01:13:59.923Z,69.38
2023-02-13T01:16:27.093Z,69.45
2023-02-13T01:18:53.588Z,69.24
2023-02-13T01:21:23.818Z,69.13
2023-02-13T01:23:51.453Z,68.64
2023-02-13T01:26:22.684Z,68.30
2023-02-13T01:28:57.695Z,68.57
2023-02-13T01:31:25.320Z,69.10
2023-02-13T01:33:51.984Z,68.46
2023-02-13T01:36:18.675Z,68.92
2023-02-13T01:38:45.114Z,69.05
2023-02-13T01:41:11.636Z,69.20
2023-02-13T01:43:52.340Z,68.71
2023-02-13T01:46:43.163Z,68.86
2023-02-13T01:49:18.516Z,69.32
2023-02-13T01:51:47.283Z,68.91
2023-02-13T01:54:26.108Z,68.58
2023-02-13T01:57:01.025Z,69.26
2023-02-13T01:59:34.763Z,68.99
2023-02-13T02:02:02.464Z,69.33
2023-02-13T02:04:38.869Z,68.94
2023-02-13T02:07:18.822Z,69.00
2023-02-13T02:09:46.604Z,68.99
2023-02-13T02:12:46.717Z,68.91
2023-02-13T02:15:13.427Z,69.21
2023-02-13T02:17:42.784Z,69.50
2023-02-13T02:20:48.784Z,69.24
2023-02-13T02:23:27.143Z,68.42
2023-02-13T02:26:27.296Z,69.16
2023-02-13T02:29:17.974Z,68.66
2023-02-13T02:32:17.751Z,69.02
2023-02-13T02:35:09.854Z,69.79
2023-02-13T02:38:12.135Z,68.74
2023-02-13T02:41:04.481Z,68.85
2023-02-13T02:44:01.542Z,69.16
2023-02-13T02:46:37.627Z,69.34
2023-02-13T02:49:35.822Z,69.81
2023-02-13T02:52:15.457Z,70.13
2023-02-13T02:55:07.064Z,70.04
2023-02-13T02:58:07.753Z,69.58
2023-02-13T03:01:05.490Z,69.62
2023-02-13T03:03:52.928Z,69.38
2023-02-13T03:06:36.048Z,69.52
2023-02-13T03:09:29.091Z,69.42
2023-02-13T03:12:15.381Z,69.49
2023-02-13T03:14:44.200Z,69.36
2023-02-13T03:17:37.156Z,68.72
2023-02-13T03:20:52.620Z,68.72
2023-02-13T03:23:56.560Z,68.35
2023-02-13T03:27:06.131Z,68.73
2023-02-13T03:30:08.868Z,69.07
2023-02-13T03:32:46.104Z,69.04
2023-02-13T03:36:12.585Z,68.65
2023-02-13T03:39:01.591Z,68.75
2023-02-13T03:41:35.724Z,68.56
2023-02-13T03:44:18.273Z,68.53
2023-02-13T03:46:49.887Z,68.81
2023-02-13T03:49:43.644Z,67.99
2023-02-13T03:52:39.215Z,68.32
2023-02-13T03:55:49.934Z,68.94
2023-02-13T03:58:46.255Z,69.33
2023-02-13T04:01:18.891Z,68.88
2023-02-13T04:04:09.502Z,68.82
2023-02-13T04:06:57.706Z,68.76
2023-02-13T04:09:29.203Z,68.91
2023-02-13T04:12:19.543Z,68.33
2023-02-13T04:15:14.577Z,68.54
2023-02-13T04:17:51.854Z,68.92
2023-02-13T04:20:19.145Z,69.22
2023-02-13T04:22:48.510Z,69.16
2023-02-13T04:25:18.385Z,69.26
2023-02-13T04:27:44.869Z,69.47
2023-02-13T04:30:12.479Z,69.45
2023-02-13T04:32:39.003Z,69.56
2023-02-13T04:35:06.012Z,69.45
2023-02-13T04:40:28.045Z,70.12
2023-02-13T04:42:54.620Z,69.85
2023-02-13T04:45:21.163Z,69.83
2023-02-13T04:47:54.910Z,69.87
2023-02-13T04:50:22.603Z,69.92
2023-02-13T04:52:55.518Z,69.63
2023-02-13T04:55:24.625Z,70.07
2023-02-13T04:57:55.819Z,70.16
2023-02-13T05:00:25.425Z,69.88
2023-02-13T05:02:52.666Z,69.89
2023-02-13T05:05:20.543Z,70.01
2023-02-13T05:07:47.212Z,69.77
2023-02-13T05:10:13.864Z,70.07
2023-02-13T05:12:40.769Z,69.35
2023-02-13T05:15:08.057Z,69.66
2023-02-13T05:17:34.595Z,68.85
2023-02-13T05:20:01.134Z,69.12
2023-02-13T05:22:46.120Z,69.73
2023-02-13T05:25:12.608Z,70.02
2023-02-13T05:27:39.158Z,69.30
2023-02-13T05:30:06.532Z,68.87
2023-02-13T05:32:32.984Z,69.47
2023-02-13T05:34:59.466Z,68.83
2023-02-13T05:37:26.039Z,69.10
2023-02-13T05:39:52.524Z,68.80
2023-02-13T05:42:18.971Z,69.15
2023-02-13T05:44:45.512Z,69.19
2023-02-13T05:47:11.993Z,69.59
2023-02-13T05:49:38.517Z,69.43
2023-02-13T05:52:05.038Z,69.34
2023-02-13T05:54:31.521Z,69.46
2023-02-13T05:56:58.027Z,70.05
2023-02-13T05:59:24.568Z,70.85
2023-02-13T06:01:51.108Z,70.94
2023-02-13T06:04:17.692Z,70.90
2023-02-13T06:06:45.468Z,70.73
2023-02-13T06:09:12.132Z,70.55
2023-02-13T06:11:38.615Z,70.78
2023-02-13T06:14:05.218Z,70.41
2023-02-13T06:16:31.719Z,70.94
2023-02-13T06:18:58.250Z,70.87
2023-02-13T06:21:24.812Z,70.34
2023-02-13T06:23:51.391Z,70.32
2023-02-13T06:26:18.692Z,69.99
2023-02-13T06:28:45.239Z,69.89
2023-02-13T06:31:11.847Z,70.35
2023-02-13T06:33:38.425Z,70.79
2023-02-13T06:36:05.234Z,70.65
2023-02-13T06:38:32.059Z,70.69
2023-02-13T06:41:02.213Z,70.54
2023-02-13T06:43:28.955Z,70.86
2023-02-13T06:45:55.757Z,70.86
2023-02-13T06:48:23.012Z,70.68
2023-02-13T06:50:52.049Z,70.64
2023-02-13T06:53:24.731Z,70.69
2023-02-13T06:55:53.238Z,70.76
2023-02-13T06:58:21.510Z,71.03
2023-02-13T07:00:48.584Z,70.65
2023-02-13T07:03:15.105Z,70.53
2023-02-13T07:05:44.261Z,70.63
2023-02-13T07:08:13.220Z,71.26
2023-02-13T07:10:41.623Z,71.25
2023-02-13T07:13:09.809Z,70.96
2023-02-13T07:15:38.040Z,70.75
2023-02-13T07:18:05.682Z,70.77
2023-02-13T07:20:32.912Z,70.72
2023-02-13T07:23:05.798Z,71.23
2023-02-13T07:25:32.738Z,71.50
2023-02-13T07:28:05.657Z,71.34
2023-02-13T07:30:33.724Z,71.50
2023-02-13T07:33:04.869Z,71.90
2023-02-13T07:35:32.397Z,71.96
2023-02-13T07:38:00.561Z,72.63
2023-02-13T07:40:27.754Z,71.87
2023-02-13T07:42:54.410Z,72.66
2023-02-13T07:45:20.907Z,72.76
2023-02-13T07:47:47.609Z,72.31
2023-02-13T07:50:14.124Z,71.47
2023-02-13T07:52:40.665Z,71.38
2023-02-13T07:55:08.194Z,71.12
2023-02-13T07:57:34.758Z,70.67
2023-02-13T08:00:01.372Z,71.34
2023-02-13T08:02:27.951Z,70.98
2023-02-13T08:04:54.487Z,70.75
2023-02-13T08:07:20.967Z,71.05
2023-02-13T08:10:06.288Z,71.44
2023-02-13T08:12:39.393Z,72.13
2023-02-13T08:15:07.024Z,72.30
2023-02-13T08:17:33.577Z,71.56
2023-02-13T08:20:00.100Z,71.24
2023-02-13T08:22:26.821Z,71.49
2023-02-13T08:24:53.411Z,71.29
2023-02-13T08:27:19.931Z,71.23
2023-02-13T08:29:46.453Z,71.25
2023-02-13T08:32:12.995Z,71.81
2023-02-13T08:34:39.623Z,71.82
2023-02-13T08:37:06.157Z,71.42
2023-02-13T08:39:32.745Z,71.47
2023-02-13T08:41:59.347Z,71.63
2023-02-13T08:44:25.855Z,72.66
2023-02-13T08:46:52.426Z,72.38
2023-02-13T08:49:19.067Z,71.43
2023-02-13T08:51:45.576Z,71.97
2023-02-13T08:54:12.093Z,71.90
2023-02-13T08:56:38.581Z,71.78
2023-02-13T08:59:05.066Z,72.24
2023-02-13T09:01:31.560Z,71.71
2023-02-13T09:03:58.157Z,71.53
2023-02-13T09:06:26.425Z,71.46
2023-02-13T09:08:53.499Z,72.08
2023-02-13T09:11:23.144Z,72.03
2023-02-13T09:13:53.495Z,71.71
2023-02-13T09:16:21.001Z,71.63
2023-02-13T09:18:51.876Z,71.41
2023-02-13T09:21:22.720Z,71.46
2023-02-13T09:23:51.385Z,71.19
2023-02-13T09:26:20.666Z,71.39
2023-02-13T09:28:50.261Z,71.60
2023-02-13T09:31:21.415Z,71.22
2023-02-13T09:33:49.956Z,71.22
2023-02-13T09:36:23.994Z,71.75
2023-02-13T09:38:56.700Z,71.28
2023-02-13T09:41:36.262Z,71.47
2023-02-13T09:44:33.634Z,71.15
2023-02-13T09:47:25.298Z,70.70
2023-02-13T09:50:02.622Z,71.43
2023-02-13T09:52:34.925Z,70.98
2023-02-13T09:55:04.042Z,70.93
2023-02-13T09:57:46.540Z,71.42
2023-02-13T10:00:24.269Z,71.25
2023-02-13T10:02:58.038Z,71.21
2023-02-13T10:06:08.061Z,71.55
2023-02-13T10:09:10.315Z,71.32
2023-02-13T10:12:12.907Z,71.00
2023-02-13T10:15:00.257Z,71.02
2023-02-13T10:17:35.168Z,70.62
2023-02-13T10:20:45.896Z,70.91
2023-02-13T10:23:34.910Z,70.44
2023-02-13T10:26:06.239Z,70.43
2023-02-13T10:28:46.125Z,69.58
2023-02-13T10:31:22.183Z,69.95
2023-02-13T10:33:58.795Z,70.08
2023-02-13T10:36:36.213Z,69.81
2023-02-13T10:39:24.496Z,69.39
2023-02-13T10:42:14.870Z,69.60
2023-02-13T10:45:23.654Z,69.49
2023-02-13T10:48:06.545Z,69.56
2023-02-13T10:50:47.808Z,69.36
2023-02-13T10:53:32.787Z,69.67
2023-02-13T10:56:04.828Z,69.83
2023-02-13T10:59:06.834Z,68.58
2023-02-13T11:01:54.436Z,68.88
2023-02-13T11:04:21.043Z,68.67
2023-02-13T11:07:02.912Z,69.10
2023-02-13T11:09:39.857Z,68.24
2023-02-13T11:12:28.777Z,68.41
2023-02-13T11:15:19.670Z,68.23
2023-02-13T11:17:46.905Z,68.53
2023-02-13T11:20:46.678Z,67.54
2023-02-13T11:23:45.199Z,67.15
2023-02-13T11:26:29.020Z,67.69
2023-02-13T11:29:01.087Z,67.49
2023-02-13T11:31:38.253Z,67.20
2023-02-13T11:34:28.277Z,67.01
2023-02-13T11:37:22.930Z,67.36
2023-02-13T11:39:53.607Z,67.27
2023-02-13T11:42:35.710Z,67.36
2023-02-13T11:45:08.411Z,66.46
2023-02-13T11:47:37.107Z,66.00
2023-02-13T11:50:18.842Z,65.59
2023-02-13T11:52:56.491Z,65.14
2023-02-13T11:55:32.715Z,65.40
2023-02-13T11:58:23.802Z,65.59
2023-02-13T12:00:50.537Z,65.90
2023-02-13T12:03:30.959Z,65.67
2023-02-13T12:06:10.792Z,65.94
2023-02-13T12:08:39.919Z,65.80
2023-02-13T12:11:24.560Z,65.85
2023-02-13T12:13:52.513Z,65.54
2023-02-13T12:16:35.788Z,65.37
2023-02-13T12:19:11.068Z,64.74
2023-02-13T12:22:08.950Z,64.76
2023-02-13T12:25:14.522Z,64.41
2023-02-13T12:27:55.871Z,64.26
2023-02-13T12:31:05.726Z,63.86
2023-02-13T12:34:19.146Z,63.73
2023-02-13T12:37:19.860Z,62.60
2023-02-13T12:39:58.166Z,63.29
2023-02-13T12:42:51.983Z,62.86
2023-02-13T12:45:43.096Z,62.83
2023-02-13T12:48:30.167Z,63.71
2023-02-13T12:51:32.009Z,61.77
2023-02-13T12:54:48.022Z,62.18
2023-02-13T12:57:41.136Z,61.96
2023-02-13T13:00:22.765Z,62.86
2023-02-13T13:03:26.900Z,62.04
2023-02-13T13:06:19.692Z,61.54
2023-02-13T13:09:05.602Z,62.61
2023-02-13T13:12:06.084Z,61.75
2023-02-13T13:14:58.325Z,61.93
2023-02-13T13:17:42.780Z,61.51
2023-02-13T13:20:48.757Z,59.73
2023-02-13T13:23:30.870Z,60.84
2023-02-13T13:26:31.993Z,61.32
2023-02-13T13:29:03.787Z,60.53
2023-02-13T13:31:34.314Z,60.73
2023-02-13T13:34:08.311Z,60.76
2023-02-13T13:36:57.826Z,59.93
2023-02-13T13:39:43.752Z,60.43
2023-02-13T13:42:32.305Z,59.81
2023-02-13T13:45:22.916Z,60.32
2023-02-13T13:48:18.080Z,59.76
2023-02-13T13:50:46.406Z,59.68
2023-02-13T13:53:23.193Z,60.12
2023-02-13T13:55:49.567Z,59.55
2023-02-13T13:58:41.654Z,59.44
2023-02-13T14:01:31.108Z,59.74
2023-02-13T14:04:32.701Z,59.59
2023-02-13T14:06:59.072Z,59.72
2023-02-13T14:09:28.354Z,59.95
2023-02-13T14:11:56.618Z,59.20
2023-02-13T14:14:29.261Z,58.96
2023-02-13T14:16:58.306Z,59.02
2023-02-13T14:19:40.613Z,58.20
2023-02-13T14:22:19.446Z,59.43
2023-02-13T14:24:54.474Z,59.41
2023-02-13T14:27:29.464Z,59.35
2023-02-13T14:29:56.821Z,59.87
2023-02-13T14:32:33.969Z,58.96
2023-02-13T14:35:15.055Z,59.34
2023-02-13T14:37:57.481Z,59.40
2023-02-13T14:40:23.828Z,59.65
2023-02-13T14:43:19.254Z,60.09
2023-02-13T14:46:36.081Z,58.75
2023-02-13T14:49:07.958Z,60.04
2023-02-13T14:51:41.141Z,59.88
2023-02-13T14:54:38.284Z,58.69
2023-02-13T14:57:26.336Z,58.24
2023-02-13T15:00:18.759Z,58.63
2023-02-13T15:02:55.113Z,59.08
2023-02-13T15:05:31.079Z,59.36
2023-02-13T15:08:22.565Z,58.79
2023-02-13T15:10:53.927Z,60.05
2023-02-13T15:13:33.910Z,59.80
2023-02-13T15:16:09.874Z,59.75
2023-02-13T15:18:52.373Z,59.59
2023-02-13T15:21:24.415Z,59.35
2023-02-13T15:23:57.292Z,59.60
2023-02-13T15:26:28.656Z,59.70
2023-02-13T15:29:17.468Z,59.26
2023-02-13T15:31:52.039Z,60.02
2023-02-13T15:34:24.215Z,59.98
2023-02-13T15:36:53.374Z,59.62
2023-02-13T15:39:26.400Z,59.83
2023-02-13T15:42:00.759Z,59.94
2023-02-13T15:44:35.755Z,59.64
2023-02-13T15:47:28.622Z,59.34
2023-02-13T15:49:55.659Z,60.19
2023-02-13T15:52:42.438Z,59.46
2023-02-13T15:55:25.471Z,59.73
2023-02-13T15:57:57.130Z,60.22
2023-02-13T16:00:40.750Z,59.46
2023-02-13T16:03:16.886Z,59.72
2023-02-13T16:05:46.907Z,59.95
2023-02-13T16:08:28.904Z,58.86
2023-02-13T16:11:17.067Z,59.75
2023-02-13T16:14:07.194Z,60.05
2023-02-13T16:17:03.830Z,60.02
2023-02-13T16:19:52.131Z,60.63
2023-02-13T16:22:45.008Z,60.20
2023-02-13T16:25:39.421Z,60.09
2023-02-13T16:28:19.885Z,60.93
2023-02-13T16:31:00.679Z,61.01
2023-02-13T16:33:30.693Z,61.43
2023-02-13T16:36:20.827Z,61.37
2023-02-13T16:38:49.884Z,61.50
2023-02-13T16:41:19.136Z,61.71
2023-02-13T16:43:52.057Z,61.98
2023-02-13T16:46:27.909Z,61.59
2023-02-13T16:48:57.423Z,62.31
2023-02-13T16:51:29.748Z,62.12
2023-02-13T16:54:10.700Z,62.29
2023-02-13T16:56:46.362Z,62.47
2023-02-13T16:59:23.937Z,62.57
2023-02-13T17:02:16.495Z,63.11
2023-02-13T17:05:19.101Z,63.00
2023-02-13T17:07:50.875Z,63.95
2023-02-13T17:10:27.540Z,63.72
2023-02-13T17:12:56.306Z,64.49
2023-02-13T17:15:26.332Z,64.98
2023-02-13T17:17:53.781Z,64.59
2023-02-13T17:20:32.779Z,64.69
2023-02-13T17:23:03.099Z,64.80
2023-02-13T17:25:33.949Z,64.90
2023-02-13T17:28:16.963Z,65.31
2023-02-13T17:30:44.775Z,64.76
2023-02-13T17:33:21.809Z,64.61
2023-02-13T17:35:49.179Z,65.48
2023-02-13T17:38:16.730Z,65.99
2023-02-13T17:40:44.702Z,65.71
2023-02-13T17:43:13.259Z,66.04
2023-02-13T17:45:40.454Z,65.89
2023-02-13T17:48:07.141Z,65.73
2023-02-13T17:50:35.873Z,66.03
2023-02-13T17:53:16.273Z,65.79
2023-02-13T17:55:42.827Z,66.37
2023-02-13T17:58:09.326Z,66.72
2023-02-13T18:00:35.936Z,66.47
2023-02-13T18:03:03.235Z,66.74
2023-02-13T18:05:31.323Z,66.56
2023-02-13T18:07:58.025Z,66.54
2023-02-13T18:10:28.013Z,66.34
2023-02-13T18:12:56.973Z,66.54
2023-02-13T18:15:24.308Z,66.51
2023-02-13T18:17:50.924Z,66.27
2023-02-13T18:20:21.194Z,66.33
2023-02-13T18:22:51.781Z,66.08
2023-02-13T18:25:21.977Z,66.34
2023-02-13T18:27:48.775Z,66.59
2023-02-13T18:30:19.300Z,66.42
2023-02-13T18:32:50.532Z,66.47
2023-02-13T18:35:17.985Z,66.82
2023-02-13T18:37:44.964Z,67.10
2023-02-13T18:40:11.979Z,67.31
2023-02-13T18:42:38.968Z,67.34
2023-02-13T18:45:05.845Z,67.12
2023-02-13T18:47:32.406Z,66.79
2023-02-13T18:49:58.900Z,66.67
2023-02-13T18:52:25.378Z,66.97
2023-02-13T18:54:52.014Z,67.00
2023-02-13T18:57:22.119Z,67.19
2023-02-13T18:59:48.652Z,67.20
2023-02-13T19:02:15.179Z,67.62
2023-02-13T19:04:41.699Z,68.21
2023-02-13T19:07:08.165Z,68.53
2023-02-13T19:09:39.930Z,68.64
2023-02-13T19:12:07.760Z,68.39
2023-02-13T19:14:34.289Z,68.63
2023-02-13T19:17:00.779Z,68.55
2023-02-13T19:19:27.474Z,68.08
2023-02-13T19:21:54.018Z,67.73
2023-02-13T19:24:20.467Z,67.62
2023-02-13T19:26:49.698Z,67.86
2023-02-13T19:29:16.194Z,67.84
2023-02-13T19:31:42.981Z,67.82
2023-02-13T19:34:09.751Z,67.58
2023-02-13T19:36:36.276Z,67.38
2023-02-13T19:39:06.612Z,67.88
2023-02-13T19:41:33.303Z,68.21
2023-02-13T19:44:00.967Z,68.36
2023-02-13T19:46:32.464Z,67.65
2023-02-13T19:48:59.804Z,67.77
2023-02-13T19:51:31.595Z,67.51
2023-02-13T19:54:07.530Z,67.85
2023-02-13T19:56:38.154Z,67.84
2023-02-13T19:59:07.063Z,68.09
2023-02-13T20:01:33.771Z,67.80
2023-02-13T20:04:02.799Z,67.48
2023-02-13T20:06:36.109Z,67.01
2023-02-13T20:09:08.893Z,67.23
2023-02-13T20:11:35.557Z,67.97
2023-02-13T20:14:03.944Z,67.90
2023-02-13T20:16:32.800Z,68.22
2023-02-13T20:19:07.424Z,68.19
2023-02-13T20:21:34.995Z,68.38
2023-02-13T20:24:05.723Z,68.25
2023-02-13T20:26:33.010Z,68.11
2023-02-13T20:29:00.226Z,67.99
2023-02-13T20:31:29.723Z,68.13
2023-02-13T20:33:57.497Z,68.72
2023-02-13T20:36:28.013Z,68.55
2023-02-13T20:39:01.169Z,68.22
2023-02-13T20:41:31.791Z,68.77
2023-02-13T20:44:02.688Z,68.32
2023-02-13T20:46:35.504Z,68.67
2023-02-13T20:49:02.246Z,68.06
2023-02-13T20:51:29.448Z,68.15
2023-02-13T20:53:56.816Z,67.88
2023-02-13T20:56:26.255Z,68.12
2023-02-13T20:58:56.182Z,68.09
2023-02-13T21:01:30.801Z,67.79
2023-02-13T21:03:58.180Z,68.72
2023-02-13T21:06:34.399Z,69.22
2023-02-13T21:09:03.125Z,70.03
2023-02-13T21:11:29.848Z,70.03
2023-02-13T21:13:58.050Z,70.08
2023-02-13T21:16:28.983Z,69.84
2023-02-13T21:18:59.037Z,69.45
2023-02-13T21:21:31.534Z,69.10
2023-02-13T21:24:07.651Z,69.02
2023-02-13T21:26:35.231Z,69.13
2023-02-13T21:29:01.940Z,69.33
2023-02-13T21:31:33.345Z,69.29
2023-02-13T21:34:03.259Z,69.54
2023-02-13T21:36:31.824Z,69.86
2023-02-13T21:38:59.698Z,69.97
2023-02-13T21:41:26.420Z,69.61
2023-02-13T21:43:53.597Z,69.62
2023-02-13T21:46:24.999Z,69.72
2023-02-13T21:49:01.231Z,69.06
2023-02-13T21:51:30.829Z,69.18
2023-02-13T21:53:58.620Z,69.69
2023-02-13T21:56:32.845Z,69.21
2023-02-13T21:59:00.208Z,70.11
2023-02-13T22:01:34.633Z,70.21
2023-02-13T22:04:07.085Z,70.19
2023-02-13T22:06:38.178Z,70.00
2023-02-13T22:09:14.161Z,69.23
2023-02-13T22:11:41.429Z,69.76
2023-02-13T22:14:13.349Z,69.65
2023-02-13T22:16:40.205Z,70.24
2023-02-13T22:19:07.111Z,70.35
2023-02-13T22:21:36.250Z,70.41
2023-02-13T22:24:03.638Z,70.54
2023-02-13T22:26:37.160Z,71.46
2023-02-13T22:29:07.558Z,71.17
2023-02-13T22:31:35.141Z,70.76
2023-02-13T22:34:04.746Z,70.34
2023-02-13T22:36:40.157Z,70.72
2023-02-13T22:39:09.564Z,70.33
2023-02-13T22:41:36.261Z,69.79
2023-02-13T22:44:02.829Z,69.85
2023-02-13T22:46:32.640Z,69.22
2023-02-13T22:49:00.108Z,69.46
2023-02-13T22:51:34.229Z,69.60
2023-02-13T22:54:01.225Z,69.76
2023-02-13T22:56:30.204Z,69.92
2023-02-13T22:58:57.459Z,69.94
2023-02-13T23:01:27.546Z,69.87
2023-02-13T23:03:55.367Z,69.79
2023-02-13T23:06:23.415Z,69.47
2023-02-13T23:08:54.753Z,69.56
2023-02-13T23:11:46.383Z,69.54
2023-02-13T23:14:14.217Z,69.95
2023-02-13T23:17:01.181Z,70.22
2023-02-13T23:19:29.697Z,71.03
2023-02-13T23:21:56.233Z,71.44
2023-02-13T23:24:22.862Z,72.22
2023-02-13T23:26:49.376Z,72.08
2023-02-13T23:29:16.351Z,72.07
2023-02-13T23:31:42.939Z,71.52
2023-02-13T23:34:09.580Z,71.30
2023-02-13T23:36:36.131Z,71.12
2023-02-13T23:39:02.654Z,70.64
2023-02-13T23:41:29.211Z,70.65
2023-02-13T23:43:55.774Z,70.25
2023-02-13T23:46:22.300Z,70.63
2023-02-13T23:48:48.802Z,70.55
2023-02-13T23:51:15.308Z,69.97
2023-02-13T23:53:41.781Z,70.67
2023-02-13T23:56:08.246Z,70.93
2023-02-13T23:58:35.121Z,71.31
